Time;durP1;ratioP1;P1;durP2;ratioP2;P2;SDS_P1;SDS_P2;PMS_P1;PMS_P2;Temp;Humidity;BMP_temperature;BMP_pressure;BME280_temperature;BME280_humidity;BME280_pressure;Samples;Min_cycle;Max_cycle;Signal;HPM_P1;HPM_P2
2023/07/09 00:01:05;;;;;;;8.85;4.90;;;;;;;;;;5032837;28;20100;-61
2023/07/09 00:03:30;;;;;;;7.13;4.88;;;;;;;;;;5039740;28;20522;-63
2023/07/09 00:05:56;;;;;;;7.65;4.90;;;;;;;;;;5044498;28;20207;-62
2023/07/09 00:08:27;;;;;;;7.40;4.68;;;;;;;;;;5031324;28;20466;-61
2023/07/09 00:10:54;;;;;;;7.75;5.25;;;;;;;;;;5031512;28;20041;-61
2023/07/09 00:13:20;;;;;;;8.18;4.70;;;;;;;;;;5032136;28;20037;-61
2023/07/09 00:15:46;;;;;;;6.90;4.88;;;;;;;;;;5047809;28;20365;-61
2023/07/09 00:18:11;;;;;;;8.20;4.72;;;;;;;;;;5052487;28;20469;-61
2023/07/09 00:20:36;;;;;;;7.22;4.60;;;;;;;;;;5054686;28;21520;-64
2023/07/09 00:23:04;;;;;;;7.13;4.78;;;;;;;;;;5045029;28;20079;-61
2023/07/09 00:25:30;;;;;;;7.15;4.25;;;;;;;;;;5032201;28;20466;-62
2023/07/09 00:27:55;;;;;;;10.95;4.80;;;;;;;;;;5031501;28;20034;-60
2023/07/09 00:30:22;;;;;;;8.50;5.15;;;;;;;;;;5031107;28;20401;-62
2023/07/09 00:32:52;;;;;;;9.00;5.30;;;;;;;;;;5031413;28;20033;-61
2023/07/09 00:35:18;;;;;;;10.48;5.03;;;;;;;;;;5031135;28;20041;-62
2023/07/09 00:37:45;;;;;;;9.13;4.63;;;;;;;;;;5042855;28;20067;-61
2023/07/09 00:40:18;;;;;;;8.05;4.40;;;;;;;;;;5048912;28;20040;-61
2023/07/09 00:42:46;;;;;;;6.70;4.35;;;;;;;;;;5030011;28;20049;-62
2023/07/09 00:45:25;;;;;;;8.25;4.47;;;;;;;;;;5037567;28;20037;-61
2023/07/09 00:48:12;;;;;;;8.95;4.60;;;;;;;;;;5048483;28;20060;-62
2023/07/09 00:50:53;;;;;;;8.88;5.20;;;;;;;;;;5040656;28;20037;-65
2023/07/09 00:53:29;;;;;;;6.65;4.60;;;;;;;;;;5031096;28;20033;-62
2023/07/09 00:56:01;;;;;;;8.82;5.00;;;;;;;;;;5037159;28;20033;-62
2023/07/09 00:58:27;;;;;;;8.98;4.80;;;;;;;;;;5049432;28;20474;-61
2023/07/09 01:01:03;;;;;;;7.88;4.63;;;;;;;;;;5028733;28;20140;-62
2023/07/09 01:03:36;;;;;;;7.25;4.63;;;;;;;;;;5031327;28;20040;-61
2023/07/09 01:06:03;;;;;;;7.57;4.85;;;;;;;;;;5045149;28;20021;-61
2023/07/09 01:08:31;;;;;;;7.60;4.68;;;;;;;;;;5050037;28;20108;-61
2023/07/09 01:10:58;;;;;;;8.82;4.90;;;;;;;;;;5049124;28;20040;-62
2023/07/09 01:13:26;;;;;;;8.30;4.50;;;;;;;;;;5050736;28;20032;-62
2023/07/09 01:15:51;;;;;;;8.13;4.80;;;;;;;;;;5038194;28;20071;-61
2023/07/09 01:18:17;;;;;;;8.48;4.97;;;;;;;;;;5051813;28;20048;-61
2023/07/09 01:20:43;;;;;;;9.55;4.80;;;;;;;;;;5045090;28;20040;-65
2023/07/09 01:23:09;;;;;;;9.40;4.90;;;;;;;;;;5033217;28;20029;-61
2023/07/09 01:25:41;;;;;;;9.27;5.03;;;;;;;;;;5035080;28;20037;-61
2023/07/09 01:28:07;;;;;;;9.07;5.20;;;;;;;;;;5055061;28;20035;-61
2023/07/09 01:30:36;;;;;;;9.75;5.00;;;;;;;;;;5049500;28;20111;-61
2023/07/09 01:33:02;;;;;;;7.18;4.68;;;;;;;;;;5053372;28;20635;-61
2023/07/09 01:35:31;;;;;;;9.93;5.13;;;;;;;;;;5044377;28;20041;-62
2023/07/09 01:37:57;;;;;;;8.50;5.00;;;;;;;;;;5047420;28;20388;-62
2023/07/09 01:40:24;;;;;;;8.70;5.20;;;;;;;;;;5040134;28;20059;-61
2023/07/09 01:42:51;;;;;;;9.60;4.82;;;;;;;;;;5029805;28;20066;-61
2023/07/09 01:45:17;;;;;;;9.73;5.05;;;;;;;;;;5048142;28;20047;-61
2023/07/09 01:47:43;;;;;;;7.45;4.90;;;;;;;;;;5044868;28;20025;-65
2023/07/09 01:50:09;;;;;;;8.13;5.10;;;;;;;;;;5042961;28;20246;-62
2023/07/09 01:52:37;;;;;;;9.15;5.10;;;;;;;;;;5034694;28;20106;-64
2023/07/09 01:55:03;;;;;;;9.20;5.13;;;;;;;;;;5055403;28;20549;-63
2023/07/09 01:57:35;;;;;;;7.40;4.90;;;;;;;;;;5031015;28;20164;-61
2023/07/09 02:00:05;;;;;;;9.48;5.03;;;;;;;;;;5033383;28;20142;-61
2023/07/09 02:02:32;;;;;;;8.43;5.00;;;;;;;;;;5065266;28;20040;-61
2023/07/09 02:04:58;;;;;;;9.30;5.25;;;;;;;;;;5044290;28;20040;-61
2023/07/09 02:07:24;;;;;;;10.13;5.53;;;;;;;;;;5046558;28;20143;-62
2023/07/09 02:09:50;;;;;;;8.35;5.10;;;;;;;;;;5041000;28;20047;-62
2023/07/09 02:12:17;;;;;;;9.43;5.15;;;;;;;;;;5041362;28;20060;-61
2023/07/09 02:14:44;;;;;;;12.55;5.55;;;;;;;;;;5049759;28;20104;-65
2023/07/09 02:17:12;;;;;;;9.07;5.65;;;;;;;;;;5035617;28;20033;-62
2023/07/09 02:19:37;;;;;;;7.07;5.20;;;;;;;;;;5046540;28;20477;-60
2023/07/09 02:22:03;;;;;;;9.30;5.90;;;;;;;;;;5043294;28;20028;-61
2023/07/09 02:24:29;;;;;;;10.18;5.30;;;;;;;;;;5054715;28;20035;-62
2023/07/09 02:26:56;;;;;;;9.18;5.30;;;;;;;;;;5046785;28;20045;-61
2023/07/09 02:29:22;;;;;;;8.65;5.88;;;;;;;;;;5050757;28;20045;-61
2023/07/09 02:31:50;;;;;;;8.48;5.75;;;;;;;;;;5072388;28;20036;-64
2023/07/09 02:34:15;;;;;;;9.35;6.05;;;;;;;;;;5039357;28;20484;-61
2023/07/09 02:36:42;;;;;;;11.85;5.85;;;;;;;;;;5047436;28;20033;-62
2023/07/09 02:39:12;;;;;;;8.88;6.00;;;;;;;;;;5032989;28;20080;-61
2023/07/09 02:41:39;;;;;;;10.82;6.28;;;;;;;;;;5049459;28;20117;-62
2023/07/09 02:44:05;;;;;;;10.18;6.00;;;;;;;;;;5031778;28;20803;-62
2023/07/09 02:46:30;;;;;;;8.80;5.85;;;;;;;;;;5033068;28;20025;-61
2023/07/09 02:48:56;;;;;;;11.15;6.38;;;;;;;;;;5037975;28;20033;-61
2023/07/09 02:51:21;;;;;;;10.90;6.50;;;;;;;;;;5040493;28;20041;-64
2023/07/09 02:53:48;;;;;;;9.68;6.03;;;;;;;;;;5053321;28;20037;-65
2023/07/09 02:56:13;;;;;;;10.13;6.22;;;;;;;;;;5034593;28;20048;-62
2023/07/09 02:58:38;;;;;;;9.88;6.38;;;;;;;;;;5035970;28;20125;-62
2023/07/09 03:01:05;;;;;;;9.50;6.10;;;;;;;;;;5052798;28;20083;-62
2023/07/09 03:03:31;;;;;;;10.80;6.63;;;;;;;;;;5046975;28;20037;-62
2023/07/09 03:05:56;;;;;;;10.07;6.20;;;;;;;;;;5033972;28;20037;-61
2023/07/09 03:08:22;;;;;;;10.13;6.15;;;;;;;;;;5048291;28;20082;-61
2023/07/09 03:10:47;;;;;;;9.10;6.13;;;;;;;;;;5034921;28;20033;-66
2023/07/09 03:13:13;;;;;;;10.82;6.60;;;;;;;;;;5038280;28;20472;-62
2023/07/09 03:15:38;;;;;;;10.25;6.65;;;;;;;;;;5041916;28;20052;-62
2023/07/09 03:18:03;;;;;;;10.23;6.43;;;;;;;;;;5052127;28;20112;-62
2023/07/09 03:20:29;;;;;;;9.32;6.32;;;;;;;;;;5037264;28;20457;-61
2023/07/09 03:22:54;;;;;;;10.30;6.78;;;;;;;;;;5043765;28;20115;-62
2023/07/09 03:25:20;;;;;;;10.85;7.07;;;;;;;;;;5055238;28;20033;-62
2023/07/09 03:27:48;;;;;;;9.50;6.55;;;;;;;;;;5052985;28;20111;-62
2023/07/09 03:30:13;;;;;;;13.15;6.85;;;;;;;;;;5050558;28;20037;-61
2023/07/09 03:32:39;;;;;;;10.73;6.93;;;;;;;;;;5046355;28;20379;-61
2023/07/09 03:35:04;;;;;;;10.60;6.78;;;;;;;;;;5041999;28;20056;-61
2023/07/09 03:37:30;;;;;;;10.30;6.85;;;;;;;;;;5032856;28;20375;-61
2023/07/09 03:39:55;;;;;;;10.35;7.28;;;;;;;;;;5036189;28;20432;-61
2023/07/09 03:42:20;;;;;;;9.60;6.90;;;;;;;;;;5035690;28;20120;-61
2023/07/09 03:44:46;;;;;;;10.27;6.70;;;;;;;;;;5052038;28;20029;-62
2023/07/09 03:47:11;;;;;;;13.32;7.03;;;;;;;;;;5050298;28;20548;-61
2023/07/09 03:49:38;;;;;;;12.23;7.00;;;;;;;;;;5052034;28;20398;-62
2023/07/09 03:52:04;;;;;;;9.82;6.50;;;;;;;;;;5041272;28;20029;-61
2023/07/09 03:54:29;;;;;;;9.60;6.68;;;;;;;;;;5032721;28;20086;-61
2023/07/09 03:56:54;;;;;;;10.32;6.60;;;;;;;;;;5034429;28;20112;-61
2023/07/09 03:59:20;;;;;;;10.20;6.88;;;;;;;;;;5041018;28;20061;-61
2023/07/09 04:01:45;;;;;;;51.42;15.88;;;;;;;;;;5047999;28;20029;-62
2023/07/09 04:04:14;;;;;;;12.50;7.18;;;;;;;;;;5033604;28;20587;-62
2023/07/09 04:06:39;;;;;;;11.63;6.90;;;;;;;;;;5031734;28;20029;-63
2023/07/09 04:09:05;;;;;;;10.93;6.90;;;;;;;;;;5034549;28;20033;-62
2023/07/09 04:11:30;;;;;;;12.93;6.80;;;;;;;;;;5043193;28;20029;-62
2023/07/09 04:13:56;;;;;;;12.25;6.88;;;;;;;;;;5037952;28;20036;-61
2023/07/09 04:16:21;;;;;;;10.77;7.07;;;;;;;;;;5053718;28;20029;-62
2023/07/09 04:18:46;;;;;;;12.55;6.38;;;;;;;;;;5050284;28;20061;-62
2023/07/09 04:21:12;;;;;;;12.00;7.00;;;;;;;;;;5037317;28;20693;-62
2023/07/09 04:23:38;;;;;;;11.75;6.90;;;;;;;;;;5071087;28;20037;-62
2023/07/09 04:26:03;;;;;;;15.13;7.70;;;;;;;;;;5070199;28;20032;-61
2023/07/09 04:28:30;;;;;;;10.10;6.50;;;;;;;;;;5061953;28;20036;-61
2023/07/09 04:30:56;;;;;;;11.75;6.78;;;;;;;;;;5050329;28;20039;-63
2023/07/09 04:33:21;;;;;;;12.55;6.60;;;;;;;;;;5052270;28;20029;-61
2023/07/09 04:35:48;;;;;;;10.10;7.45;;;;;;;;;;5052499;28;20029;-62
2023/07/09 04:38:14;;;;;;;11.77;7.00;;;;;;;;;;5051342;28;20024;-62
2023/07/09 04:40:39;;;;;;;11.80;6.75;;;;;;;;;;5053074;28;20024;-62
2023/07/09 04:43:05;;;;;;;10.88;7.10;;;;;;;;;;5068235;28;20392;-63
2023/07/09 04:45:30;;;;;;;11.52;7.32;;;;;;;;;;5059753;28;20029;-62
2023/07/09 04:47:56;;;;;;;11.05;6.95;;;;;;;;;;5050021;28;20041;-66
2023/07/09 04:50:22;;;;;;;11.88;6.90;;;;;;;;;;5052050;28;20067;-62
2023/07/09 04:52:47;;;;;;;11.35;6.88;;;;;;;;;;5059567;28;20055;-61
2023/07/09 04:55:13;;;;;;;11.98;6.65;;;;;;;;;;5061813;28;20054;-62
2023/07/09 04:57:39;;;;;;;9.77;6.60;;;;;;;;;;5071744;28;20029;-62
2023/07/09 05:00:06;;;;;;;10.57;7.10;;;;;;;;;;5070749;28;20058;-62
2023/07/09 05:02:31;;;;;;;10.15;7.00;;;;;;;;;;5072053;28;20028;-61
2023/07/09 05:04:57;;;;;;;9.52;6.82;;;;;;;;;;5055838;28;20086;-65
2023/07/09 05:07:22;;;;;;;10.05;6.53;;;;;;;;;;5051778;28;20063;-61
2023/07/09 05:09:48;;;;;;;12.55;6.78;;;;;;;;;;5055062;28;20028;-61
2023/07/09 05:12:13;;;;;;;10.52;6.63;;;;;;;;;;5064494;28;20047;-61
2023/07/09 05:14:39;;;;;;;10.55;6.47;;;;;;;;;;5061490;28;20067;-64
2023/07/09 05:17:05;;;;;;;12.38;6.78;;;;;;;;;;5056208;28;20033;-62
2023/07/09 05:19:31;;;;;;;9.00;5.97;;;;;;;;;;5031601;28;20029;-62
2023/07/09 05:21:57;;;;;;;12.10;6.80;;;;;;;;;;5044266;28;20474;-66
2023/07/09 05:24:22;;;;;;;10.63;6.35;;;;;;;;;;5051102;28;20033;-61
2023/07/09 05:26:48;;;;;;;10.00;6.25;;;;;;;;;;5051233;28;20112;-62
2023/07/09 05:29:13;;;;;;;10.40;6.30;;;;;;;;;;5063391;28;20400;-62
2023/07/09 05:31:38;;;;;;;9.18;6.10;;;;;;;;;;5071431;28;20514;-62
2023/07/09 05:34:04;;;;;;;10.52;6.05;;;;;;;;;;5070462;28;20115;-61
2023/07/09 05:36:30;;;;;;;12.32;6.43;;;;;;;;;;5064733;28;20024;-61
2023/07/09 05:38:56;;;;;;;11.30;7.03;;;;;;;;;;5042684;28;20421;-66
2023/07/09 05:41:22;;;;;;;13.43;6.70;;;;;;;;;;5034274;28;20025;-62
2023/07/09 05:43:50;;;;;;;16.42;6.35;;;;;;;;;;5034997;28;20099;-62
2023/07/09 05:46:15;;;;;;;9.70;7.00;;;;;;;;;;5034687;28;20517;-62
2023/07/09 05:48:41;;;;;;;10.25;6.90;;;;;;;;;;5035338;28;20087;-62
2023/07/09 05:51:06;;;;;;;9.82;6.05;;;;;;;;;;5034444;28;20060;-64
2023/07/09 05:53:33;;;;;;;11.88;7.22;;;;;;;;;;5058297;28;20029;-62
2023/07/09 05:55:59;;;;;;;9.63;6.22;;;;;;;;;;5053009;28;20031;-65
2023/07/09 05:58:24;;;;;;;10.75;7.22;;;;;;;;;;5062108;28;20033;-61
2023/07/09 06:00:53;;;;;;;10.30;6.13;;;;;;;;;;5075056;28;20105;-61
2023/07/09 06:03:21;;;;;;;10.75;6.50;;;;;;;;;;5078099;28;20323;-61
2023/07/09 06:05:49;;;;;;;8.93;6.18;;;;;;;;;;5063475;28;20100;-61
2023/07/09 06:08:15;;;;;;;9.25;6.03;;;;;;;;;;5040123;28;20032;-64
2023/07/09 06:10:50;;;;;;;11.40;6.50;;;;;;;;;;5065698;28;20040;-60
2023/07/09 06:13:15;;;;;;;9.52;6.25;;;;;;;;;;5069712;28;20380;-63
2023/07/09 06:15:41;;;;;;;10.93;6.40;;;;;;;;;;5065807;28;20469;-62
2023/07/09 06:18:06;;;;;;;10.43;6.28;;;;;;;;;;5074088;28;20074;-62
2023/07/09 06:20:32;;;;;;;11.25;6.15;;;;;;;;;;5074124;28;20036;-62
2023/07/09 06:22:57;;;;;;;12.15;6.50;;;;;;;;;;5072514;28;20102;-62
2023/07/09 06:25:22;;;;;;;10.25;6.28;;;;;;;;;;5066395;28;20021;-62
2023/07/09 06:27:48;;;;;;;13.57;6.65;;;;;;;;;;5069310;28;20439;-62
2023/07/09 06:30:14;;;;;;;11.13;6.18;;;;;;;;;;5060544;28;20039;-62
2023/07/09 06:32:39;;;;;;;12.45;6.53;;;;;;;;;;5062794;28;20127;-62
2023/07/09 06:35:05;;;;;;;9.73;6.13;;;;;;;;;;5055433;28;20121;-62
2023/07/09 06:37:30;;;;;;;12.32;6.25;;;;;;;;;;5053813;28;20034;-62
2023/07/09 06:39:55;;;;;;;11.10;6.20;;;;;;;;;;5052201;28;20480;-61
2023/07/09 06:42:21;;;;;;;9.68;5.90;;;;;;;;;;5047827;28;20478;-61
2023/07/09 06:44:46;;;;;;;8.63;5.78;;;;;;;;;;5037515;28;20045;-62
2023/07/09 06:47:11;;;;;;;9.90;6.15;;;;;;;;;;5040231;28;20482;-61
2023/07/09 06:49:37;;;;;;;10.30;6.50;;;;;;;;;;5034157;28;20117;-61
2023/07/09 06:52:02;;;;;;;10.05;6.20;;;;;;;;;;5032243;28;20374;-65
2023/07/09 06:54:28;;;;;;;11.80;6.47;;;;;;;;;;5039227;28;20054;-62
2023/07/09 06:56:53;;;;;;;12.07;6.00;;;;;;;;;;5074103;28;20060;-61
2023/07/09 06:59:18;;;;;;;8.63;5.78;;;;;;;;;;5072805;28;20036;-62
2023/07/09 07:01:44;;;;;;;10.25;5.63;;;;;;;;;;5073316;28;20037;-62
2023/07/09 07:04:09;;;;;;;8.90;5.85;;;;;;;;;;5066679;28;20047;-62
2023/07/09 07:06:35;;;;;;;9.18;5.65;;;;;;;;;;5071475;28;20115;-62
2023/07/09 07:09:00;;;;;;;10.38;6.00;;;;;;;;;;5073709;28;20036;-65
2023/07/09 07:11:29;;;;;;;10.90;5.93;;;;;;;;;;5073500;28;20028;-62
2023/07/09 07:13:55;;;;;;;9.00;5.57;;;;;;;;;;5072524;28;20032;-62
2023/07/09 07:16:20;;;;;;;11.02;6.05;;;;;;;;;;5072524;28;20115;-62
2023/07/09 07:18:46;;;;;;;10.32;5.93;;;;;;;;;;5073601;28;20441;-62
2023/07/09 07:21:11;;;;;;;8.68;5.70;;;;;;;;;;5037734;28;20029;-62
2023/07/09 07:23:36;;;;;;;10.80;5.80;;;;;;;;;;5056624;28;20418;-62
2023/07/09 07:26:03;;;;;;;9.55;5.90;;;;;;;;;;5072045;28;20055;-65
2023/07/09 07:28:29;;;;;;;11.38;6.13;;;;;;;;;;5070710;28;20147;-62
2023/07/09 07:31:13;;;;;;;8.52;5.75;;;;;;;;;;5068064;28;20457;-61
2023/07/09 07:33:40;;;;;;;9.20;5.70;;;;;;;;;;5068299;28;20033;-63
2023/07/09 07:36:05;;;;;;;9.07;5.32;;;;;;;;;;5072270;28;20461;-66
2023/07/09 07:38:31;;;;;;;8.70;5.65;;;;;;;;;;5053029;28;20031;-63
2023/07/09 07:40:56;;;;;;;11.43;5.95;;;;;;;;;;5052966;28;20382;-62
2023/07/09 07:43:22;;;;;;;11.77;6.05;;;;;;;;;;5038005;28;20663;-61
2023/07/09 07:45:48;;;;;;;9.35;5.55;;;;;;;;;;5050354;28;20098;-62
2023/07/09 07:48:13;;;;;;;12.68;6.10;;;;;;;;;;5052353;28;20493;-62
2023/07/09 07:50:40;;;;;;;8.75;5.82;;;;;;;;;;5056380;28;20036;-61
2023/07/09 07:53:07;;;;;;;8.73;5.60;;;;;;;;;;5062351;28;20032;-65
2023/07/09 07:55:33;;;;;;;11.05;6.15;;;;;;;;;;5051961;28;20021;-62
2023/07/09 07:58:02;;;;;;;14.48;6.13;;;;;;;;;;5052875;28;20036;-62
2023/07/09 08:00:28;;;;;;;11.07;5.93;;;;;;;;;;5046152;28;20159;-61
2023/07/09 08:02:53;;;;;;;8.32;6.05;;;;;;;;;;5036865;28;20115;-62
2023/07/09 08:05:19;;;;;;;9.38;6.00;;;;;;;;;;5070689;28;20031;-61
2023/07/09 08:07:44;;;;;;;11.38;6.03;;;;;;;;;;5071356;28;20031;-62
2023/07/09 08:10:11;;;;;;;11.73;6.28;;;;;;;;;;5071491;28;20040;-62
2023/07/09 08:12:37;;;;;;;10.90;6.63;;;;;;;;;;5032456;28;20030;-62
2023/07/09 08:15:03;;;;;;;14.55;6.50;;;;;;;;;;5032372;28;20029;-61
2023/07/09 08:17:29;;;;;;;9.57;6.32;;;;;;;;;;5031868;28;20041;-61
2023/07/09 08:19:54;;;;;;;10.77;6.20;;;;;;;;;;5032419;28;20037;-62
2023/07/09 08:22:21;;;;;;;12.68;6.57;;;;;;;;;;5068948;28;20037;-62
2023/07/09 08:24:48;;;;;;;22.15;7.20;;;;;;;;;;5072361;28;20039;-62
2023/07/09 08:27:14;;;;;;;11.18;6.28;;;;;;;;;;5071530;28;20511;-62
2023/07/09 08:29:41;;;;;;;13.18;6.82;;;;;;;;;;5036791;28;20036;-61
2023/07/09 08:32:08;;;;;;;13.57;7.13;;;;;;;;;;5054622;28;20059;-60
2023/07/09 08:34:33;;;;;;;12.07;6.57;;;;;;;;;;5063963;28;20078;-61
2023/07/09 08:36:58;;;;;;;12.50;7.03;;;;;;;;;;5060785;28;20120;-61
2023/07/09 08:39:24;;;;;;;13.88;6.97;;;;;;;;;;5031014;28;20064;-61
2023/07/09 08:42:03;;;;;;;12.63;6.80;;;;;;;;;;5032090;28;20041;-60
2023/07/09 08:44:38;;;;;;;13.48;6.78;;;;;;;;;;5032269;28;20025;-61
2023/07/09 08:47:30;;;;;;;13.77;6.63;;;;;;;;;;5040673;28;20044;-61
2023/07/09 08:50:25;;;;;;;11.98;6.40;;;;;;;;;;5050284;28;20474;-61
2023/07/09 08:52:53;;;;;;;10.77;6.32;;;;;;;;;;5042745;28;20140;-62
2023/07/09 08:55:27;;;;;;;12.25;6.15;;;;;;;;;;5037298;28;20171;-61
2023/07/09 08:58:05;;;;;;;10.48;6.43;;;;;;;;;;5035153;28;20370;-61
2023/07/09 09:00:56;;;;;;;9.73;6.00;;;;;;;;;;5049380;28;20094;-60
2023/07/09 09:03:44;;;;;;;13.75;6.53;;;;;;;;;;5046117;28;20044;-61
2023/07/09 09:06:13;;;;;;;12.98;6.32;;;;;;;;;;5042745;28;20069;-61
2023/07/09 09:09:04;;;;;;;11.68;6.13;;;;;;;;;;5031824;28;20026;-61
2023/07/09 09:11:33;;;;;;;9.73;6.03;;;;;;;;;;5050539;28;20485;-61
2023/07/09 09:14:03;;;;;;;10.70;6.40;;;;;;;;;;5051434;28;20170;-61
2023/07/09 09:16:32;;;;;;;12.13;6.55;;;;;;;;;;5050450;28;20705;-60
2023/07/09 09:19:00;;;;;;;10.85;6.03;;;;;;;;;;5033755;28;20394;-61
2023/07/09 09:21:28;;;;;;;12.48;6.30;;;;;;;;;;5046426;28;20104;-61
2023/07/09 09:24:01;;;;;;;12.75;6.07;;;;;;;;;;5039507;28;20040;-61
2023/07/09 09:26:32;;;;;;;10.38;6.15;;;;;;;;;;5041986;28;20034;-61
2023/07/09 09:28:57;;;;;;;10.20;6.25;;;;;;;;;;5046553;28;20112;-61
2023/07/09 09:31:26;;;;;;;12.52;6.28;;;;;;;;;;5035152;28;20112;-61
2023/07/09 09:33:51;;;;;;;12.93;6.50;;;;;;;;;;5036890;28;20115;-61
2023/07/09 09:36:23;;;;;;;10.07;6.00;;;;;;;;;;5047586;28;20474;-61
2023/07/09 09:38:50;;;;;;;10.70;6.13;;;;;;;;;;5040346;28;20465;-61
2023/07/09 09:41:21;;;;;;;10.27;5.93;;;;;;;;;;5047603;28;20075;-60
2023/07/09 09:43:48;;;;;;;10.45;6.15;;;;;;;;;;5046094;28;20366;-61
2023/07/09 09:46:26;;;;;;;9.35;6.07;;;;;;;;;;5030829;28;20056;-61
2023/07/09 09:48:59;;;;;;;11.70;5.70;;;;;;;;;;5034542;28;20052;-61
2023/07/09 09:51:26;;;;;;;12.25;5.50;;;;;;;;;;5046508;28;20041;-61
2023/07/09 09:53:58;;;;;;;11.93;6.00;;;;;;;;;;5034468;28;20029;-61
2023/07/09 09:56:33;;;;;;;11.65;6.05;;;;;;;;;;5040535;28;20400;-61
2023/07/09 09:59:00;;;;;;;9.98;5.70;;;;;;;;;;5042197;28;20041;-60
2023/07/09 10:01:31;;;;;;;12.73;5.63;;;;;;;;;;5045138;28;20133;-61
2023/07/09 10:03:59;;;;;;;11.70;5.50;;;;;;;;;;5042593;28;20033;-62
2023/07/09 10:06:36;;;;;;;10.23;5.32;;;;;;;;;;5050422;28;20091;-60
2023/07/09 10:09:24;;;;;;;10.32;5.60;;;;;;;;;;5034630;28;20047;-61
2023/07/09 10:12:02;;;;;;;10.35;5.72;;;;;;;;;;5046650;28;20112;-61
2023/07/09 10:14:38;;;;;;;9.55;5.95;;;;;;;;;;5047585;28;20063;-61
2023/07/09 10:17:33;;;;;;;11.35;5.28;;;;;;;;;;5051060;28;20465;-62
2023/07/09 10:20:06;;;;;;;9.52;5.53;;;;;;;;;;5037174;28;20048;-61
2023/07/09 10:22:42;;;;;;;12.20;5.40;;;;;;;;;;5041783;28;20037;-60
2023/07/09 10:25:48;;;;;;;9.77;5.18;;;;;;;;;;5030220;28;20030;-61
2023/07/09 10:28:32;;;;;;;9.27;5.60;;;;;;;;;;5034483;28;20041;-60
2023/07/09 10:31:08;;;;;;;7.78;5.00;;;;;;;;;;5035168;28;20086;-61
2023/07/09 10:34:00;;;;;;;11.45;5.18;;;;;;;;;;5037523;28;20044;-61
2023/07/09 10:36:41;;;;;;;8.13;5.30;;;;;;;;;;5033332;28;20034;-61
2023/07/09 10:39:20;;;;;;;10.10;5.32;;;;;;;;;;5041906;28;20033;-61
2023/07/09 10:41:49;;;;;;;8.80;5.10;;;;;;;;;;5033535;28;20108;-61
2023/07/09 10:44:36;;;;;;;7.68;5.25;;;;;;;;;;5033865;28;20022;-61
2023/07/09 10:47:13;;;;;;;8.35;5.32;;;;;;;;;;5035009;28;20413;-62
2023/07/09 10:49:42;;;;;;;7.97;4.97;;;;;;;;;;5049323;28;20059;-61
2023/07/09 10:52:19;;;;;;;6.60;4.80;;;;;;;;;;5042206;28;20041;-61
2023/07/09 10:55:05;;;;;;;8.32;5.13;;;;;;;;;;5052008;28;20533;-61
2023/07/09 10:57:41;;;;;;;8.23;5.28;;;;;;;;;;5053701;28;20108;-62
2023/07/09 11:00:18;;;;;;;6.93;4.85;;;;;;;;;;5037154;28;20064;-61
2023/07/09 11:02:45;;;;;;;11.50;4.97;;;;;;;;;;5036540;28;20037;-62
2023/07/09 11:05:10;;;;;;;8.60;4.80;;;;;;;;;;5037404;28;20026;-61
2023/07/09 11:07:41;;;;;;;8.68;4.85;;;;;;;;;;5048488;28;20623;-61
2023/07/09 11:10:32;;;;;;;9.13;4.65;;;;;;;;;;5052634;28;20063;-60
2023/07/09 11:13:19;;;;;;;10.82;5.10;;;;;;;;;;5052288;28;20144;-60
2023/07/09 11:15:48;;;;;;;7.95;4.55;;;;;;;;;;5053821;28;20040;-62
2023/07/09 11:18:21;;;;;;;10.80;4.95;;;;;;;;;;5048410;28;20562;-61
2023/07/09 11:20:58;;;;;;;8.65;5.00;;;;;;;;;;5033121;28;20037;-61
2023/07/09 11:23:25;;;;;;;8.35;4.85;;;;;;;;;;5032439;28;20031;-60
2023/07/09 11:26:12;;;;;;;8.20;4.47;;;;;;;;;;5033681;28;20044;-61
2023/07/09 11:28:39;;;;;;;8.07;4.32;;;;;;;;;;5035376;28;20186;-61
2023/07/09 11:31:30;;;;;;;7.28;4.38;;;;;;;;;;5033293;28;20441;-60
2023/07/09 11:34:02;;;;;;;5.72;4.15;;;;;;;;;;5033098;28;20462;-61
2023/07/09 11:36:30;;;;;;;6.70;4.38;;;;;;;;;;5035908;28;20037;-62
2023/07/09 11:38:56;;;;;;;7.63;4.70;;;;;;;;;;5049377;28;20024;-60
2023/07/09 11:41:39;;;;;;;7.28;4.20;;;;;;;;;;5049120;28;20104;-61
2023/07/09 11:44:28;;;;;;;7.45;4.50;;;;;;;;;;5033520;28;20033;-61
2023/07/09 11:46:53;;;;;;;;;;;;;;;;;;5033722;28;20075;-61
2023/07/09 11:49:23;;;;;;;7.65;4.03;;;;;;;;;;5032805;28;19952;-61
2023/07/09 11:51:54;;;;;;;9.32;4.10;;;;;;;;;;5046890;28;20021;-61
2023/07/09 11:54:20;;;;;;;6.03;4.00;;;;;;;;;;5032765;28;20040;-61
2023/07/09 11:56:57;;;;;;;5.95;3.95;;;;;;;;;;5033115;28;20045;-61
2023/07/09 11:59:23;;;;;;;7.55;3.80;;;;;;;;;;5048398;28;20118;-60
2023/07/09 12:01:52;;;;;;;6.32;3.83;;;;;;;;;;5052807;28;20055;-61
2023/07/09 12:04:20;;;;;;;8.63;3.90;;;;;;;;;;5035141;28;20033;-60
2023/07/09 12:06:46;;;;;;;6.78;3.50;;;;;;;;;;5034995;28;20033;-61
2023/07/09 12:09:18;;;;;;;6.65;3.78;;;;;;;;;;5032067;28;20477;-61
2023/07/09 12:11:49;;;;;;;6.70;3.78;;;;;;;;;;5031860;28;20474;-61
2023/07/09 12:14:17;;;;;;;8.43;3.90;;;;;;;;;;5045318;28;20489;-62
2023/07/09 12:16:46;;;;;;;7.95;3.95;;;;;;;;;;5050175;28;20044;-62
2023/07/09 12:19:14;;;;;;;7.35;3.40;;;;;;;;;;5051013;28;20061;-62
2023/07/09 12:21:42;;;;;;;10.43;3.65;;;;;;;;;;5034387;28;20612;-61
2023/07/09 12:24:30;;;;;;;5.38;3.15;;;;;;;;;;5047300;28;20095;-61
2023/07/09 12:27:01;;;;;;;5.78;3.85;;;;;;;;;;5034552;28;20371;-61
2023/07/09 12:29:35;;;;;;;7.32;3.88;;;;;;;;;;5046987;28;20037;-61
2023/07/09 12:32:11;;;;;;;6.70;3.67;;;;;;;;;;5034037;28;20030;-61
2023/07/09 12:34:37;;;;;;;4.82;3.28;;;;;;;;;;5031636;28;20032;-61
2023/07/09 12:37:02;;;;;;;5.55;3.50;;;;;;;;;;5032738;28;20025;-62
2023/07/09 12:39:31;;;;;;;9.40;3.30;;;;;;;;;;5042379;28;20025;-61
2023/07/09 12:42:01;;;;;;;7.72;3.50;;;;;;;;;;5036799;28;20053;-62
2023/07/09 12:44:29;;;;;;;6.72;3.80;;;;;;;;;;5051324;28;20477;-61
2023/07/09 12:46:55;;;;;;;9.05;3.95;;;;;;;;;;5037513;28;20025;-61
2023/07/09 12:49:20;;;;;;;10.75;3.85;;;;;;;;;;5031241;28;20112;-61
2023/07/09 12:51:45;;;;;;;10.82;3.85;;;;;;;;;;5034349;28;20048;-61
2023/07/09 12:54:15;;;;;;;6.97;4.15;;;;;;;;;;5044200;28;20186;-61
2023/07/09 12:56:41;;;;;;;6.97;3.78;;;;;;;;;;5047046;28;20639;-61
2023/07/09 12:59:25;;;;;;;8.98;3.80;;;;;;;;;;5032394;28;20060;-61
2023/07/09 13:02:00;;;;;;;7.15;3.70;;;;;;;;;;5031756;28;20029;-61
2023/07/09 13:04:36;;;;;;;7.80;3.90;;;;;;;;;;5030558;28;20029;-60
2023/07/09 13:07:01;;;;;;;5.25;3.63;;;;;;;;;;5033060;28;20087;-61
2023/07/09 13:09:28;;;;;;;6.88;3.60;;;;;;;;;;5036362;28;20054;-60
2023/07/09 13:11:57;;;;;;;5.50;3.50;;;;;;;;;;5041972;28;20029;-61
2023/07/09 13:14:29;;;;;;;5.88;3.28;;;;;;;;;;5045101;28;20053;-61
2023/07/09 13:17:05;;;;;;;8.32;3.42;;;;;;;;;;5045906;28;20052;-61
2023/07/09 13:19:31;;;;;;;6.75;3.78;;;;;;;;;;5049841;28;20037;-61
2023/07/09 13:21:56;;;;;;;5.60;3.30;;;;;;;;;;5050607;28;20063;-62
2023/07/09 13:24:29;;;;;;;6.30;3.58;;;;;;;;;;5042985;28;20421;-61
2023/07/09 13:26:58;;;;;;;8.75;3.58;;;;;;;;;;5043224;28;20412;-62
2023/07/09 13:29:24;;;;;;;6.28;3.42;;;;;;;;;;5051276;28;20051;-61
2023/07/09 13:31:49;;;;;;;10.73;3.63;;;;;;;;;;5036287;28;20091;-61
2023/07/09 13:34:25;;;;;;;7.20;3.67;;;;;;;;;;5048523;28;20396;-62
2023/07/09 13:36:53;;;;;;;6.28;3.45;;;;;;;;;;5034095;28;20033;-61
2023/07/09 13:39:20;;;;;;;7.90;3.63;;;;;;;;;;5032038;28;20065;-61
2023/07/09 13:41:47;;;;;;;6.28;3.40;;;;;;;;;;5043578;28;20029;-61
2023/07/09 13:44:22;;;;;;;7.10;3.72;;;;;;;;;;5032749;28;20076;-63
2023/07/09 13:46:48;;;;;;;7.18;3.72;;;;;;;;;;5052688;28;20068;-61
2023/07/09 13:49:18;;;;;;;5.65;3.60;;;;;;;;;;5062114;28;20079;-61
2023/07/09 13:51:45;;;;;;;7.15;3.67;;;;;;;;;;5040742;28;20056;-62
2023/07/09 13:54:21;;;;;;;8.55;3.65;;;;;;;;;;5034071;28;20489;-61
2023/07/09 13:56:47;;;;;;;6.03;3.50;;;;;;;;;;5030177;28;20041;-62
2023/07/09 13:59:23;;;;;;;7.28;3.50;;;;;;;;;;5030518;28;20082;-62
2023/07/09 14:01:51;;;;;;;7.35;3.70;;;;;;;;;;5032347;28;20426;-62
2023/07/09 14:04:18;;;;;;;6.30;3.72;;;;;;;;;;5034748;28;20069;-61
2023/07/09 14:06:46;;;;;;;6.18;3.50;;;;;;;;;;5056708;28;20040;-62
2023/07/09 14:09:12;;;;;;;7.03;3.60;;;;;;;;;;5049958;28;20029;-62
2023/07/09 14:11:50;;;;;;;8.45;3.63;;;;;;;;;;5057699;28;20149;-61
2023/07/09 14:14:30;;;;;;;8.18;3.80;;;;;;;;;;5074546;28;20127;-62
2023/07/09 14:16:56;;;;;;;6.88;4.00;;;;;;;;;;5073891;28;20158;-62
2023/07/09 14:19:23;;;;;;;8.48;3.95;;;;;;;;;;5074466;28;20052;-60
2023/07/09 14:21:50;;;;;;;8.45;4.00;;;;;;;;;;5074146;28;20051;-62
2023/07/09 14:24:21;;;;;;;8.68;4.10;;;;;;;;;;5070042;28;20033;-61
2023/07/09 14:26:48;;;;;;;9.10;3.55;;;;;;;;;;5062145;28;20039;-66
2023/07/09 14:29:16;;;;;;;8.95;4.13;;;;;;;;;;5074341;28;20108;-61
2023/07/09 14:31:43;;;;;;;5.93;3.78;;;;;;;;;;5073788;28;20036;-62
2023/07/09 14:34:32;;;;;;;6.78;3.80;;;;;;;;;;5070699;28;20119;-61
2023/07/09 14:36:58;;;;;;;;;;;;;;;;;;5051472;28;20044;-61
2023/07/09 14:39:26;;;;;;;6.05;3.78;;;;;;;;;;5053991;28;19913;-61
2023/07/09 14:41:52;;;;;;;10.25;4.03;;;;;;;;;;5052189;28;20041;-63
2023/07/09 14:44:29;;;;;;;9.52;4.20;;;;;;;;;;5054215;28;20029;-62
2023/07/09 14:46:57;;;;;;;7.82;4.07;;;;;;;;;;5054112;28;20083;-61
2023/07/09 14:49:23;;;;;;;9.70;3.83;;;;;;;;;;5034984;28;20087;-60